sensor_id;sensor_type;location;lat;lon;timestamp;pressure;altitude;pressure_sealevel;temperature;humidity
19086;BME280;9675;51.538;6.728;2023-09-12T00:00:47;100949.63;;;26.39;83.98
19086;BME280;9675;51.538;6.728;2023-09-12T00:03:19;100944.41;;;26.34;85.31
19086;BME280;9675;51.538;6.728;2023-09-12T00:05:51;100939.19;;;26.31;85.69
19086;BME280;9675;51.538;6.728;2023-09-12T00:08:18;100932.16;;;26.27;86.63
19086;BME280;9675;51.538;6.728;2023-09-12T00:10:46;100941.03;;;26.25;85.37
19086;BME280;9675;51.538;6.728;2023-09-12T00:13:13;100951.59;;;26.23;86.29
19086;BME280;9675;51.538;6.728;2023-09-12T00:15:40;100959.53;;;26.20;87.53
19086;BME280;9675;51.538;6.728;2023-09-12T00:18:07;100967.47;;;26.17;87.60
19086;BME280;9675;51.538;6.728;2023-09-12T00:20:35;100978.97;;;26.14;88.04
19086;BME280;9675;51.538;6.728;2023-09-12T00:23:03;100985.13;;;26.12;88.61
19086;BME280;9675;51.538;6.728;2023-09-12T00:25:30;101020.38;;;26.08;93.65
19086;BME280;9675;51.538;6.728;2023-09-12T00:27:57;100977.31;;;26.04;95.86
19086;BME280;9675;51.538;6.728;2023-09-12T00:30:24;100914.94;;;25.97;97.75
19086;BME280;9675;51.538;6.728;2023-09-12T00:32:51;100934.38;;;25.90;100.00
19086;BME280;9675;51.538;6.728;2023-09-12T00:35:18;100920.38;;;25.85;100.00
19086;BME280;9675;51.538;6.728;2023-09-12T00:37:47;100892.31;;;25.78;100.00
19086;BME280;9675;51.538;6.728;2023-09-12T00:40:14;100905.56;;;25.72;100.00
19086;BME280;9675;51.538;6.728;2023-09-12T00:42:41;100910.88;;;25.67;100.00
19086;BME280;9675;51.538;6.728;2023-09-12T00:45:09;100924.97;;;25.66;100.00
19086;BME280;9675;51.538;6.728;2023-09-12T00:47:36;100926.78;;;25.63;100.00
19086;BME280;9675;51.538;6.728;2023-09-12T00:50:06;100930.34;;;25.59;100.00
19086;BME280;9675;51.538;6.728;2023-09-12T00:52:36;100914.53;;;25.51;100.00
19086;BME280;9675;51.538;6.728;2023-09-12T00:55:07;100928.66;;;25.46;100.00
19086;BME280;9675;51.538;6.728;2023-09-12T00:57:35;100925.22;;;25.39;100.00
19086;BME280;9675;51.538;6.728;2023-09-12T01:00:05;100927.00;;;25.35;100.00
19086;BME280;9675;51.538;6.728;2023-09-12T01:02:39;100918.25;;;25.33;100.00
19086;BME280;9675;51.538;6.728;2023-09-12T01:05:07;100940.25;;;25.31;100.00
19086;BME280;9675;51.538;6.728;2023-09-12T01:07:35;100932.38;;;25.26;100.00
19086;BME280;9675;51.538;6.728;2023-09-12T01:10:04;100928.91;;;25.21;100.00
19086;BME280;9675;51.538;6.728;2023-09-12T01:12:32;100913.13;;;25.15;100.00
19086;BME280;9675;51.538;6.728;2023-09-12T01:15:00;100922.84;;;25.12;100.00
19086;BME280;9675;51.538;6.728;2023-09-12T01:17:27;100916.75;;;25.07;100.00
19086;BME280;9675;51.538;6.728;2023-09-12T01:19:55;100912.34;;;25.03;100.00
19086;BME280;9675;51.538;6.728;2023-09-12T01:22:55;100903.63;;;24.99;100.00
19086;BME280;9675;51.538;6.728;2023-09-12T01:25:59;100898.38;;;24.94;100.00
19086;BME280;9675;51.538;6.728;2023-09-12T01:28:30;100906.28;;;24.94;100.00
19086;BME280;9675;51.538;6.728;2023-09-12T01:31:01;100926.50;;;24.92;100.00
19086;BME280;9675;51.538;6.728;2023-09-12T01:33:29;100929.16;;;24.91;100.00
19086;BME280;9675;51.538;6.728;2023-09-12T01:35:56;100921.25;;;24.88;100.00
19086;BME280;9675;51.538;6.728;2023-09-12T01:38:23;100906.34;;;24.85;100.00
19086;BME280;9675;51.538;6.728;2023-09-12T01:40:53;100928.28;;;24.84;100.00
19086;BME280;9675;51.538;6.728;2023-09-12T01:43:24;100955.53;;;24.82;100.00
19086;BME280;9675;51.538;6.728;2023-09-12T01:45:57;100902.91;;;24.76;100.00
19086;BME280;9675;51.538;6.728;2023-09-12T01:48:33;100894.16;;;24.69;100.00
19086;BME280;9675;51.538;6.728;2023-09-12T01:51:03;100935.44;;;24.67;100.00
19086;BME280;9675;51.538;6.728;2023-09-12T01:53:33;100905.63;;;24.65;100.00
19086;BME280;9675;51.538;6.728;2023-09-12T01:56:00;100853.84;;;24.61;100.00
19086;BME280;9675;51.538;6.728;2023-09-12T01:58:28;100874.94;;;24.56;100.00
19086;BME280;9675;51.538;6.728;2023-09-12T02:00:57;100888.13;;;24.52;100.00
19086;BME280;9675;51.538;6.728;2023-09-12T02:03:24;100888.16;;;24.46;100.00
19086;BME280;9675;51.538;6.728;2023-09-12T02:05:51;100879.47;;;24.38;100.00
19086;BME280;9675;51.538;6.728;2023-09-12T02:08:18;100888.22;;;24.37;100.00
19086;BME280;9675;51.538;6.728;2023-09-12T02:10:45;100916.34;;;24.35;100.00
19086;BME280;9675;51.538;6.728;2023-09-12T02:13:12;100882.13;;;24.32;100.00
19086;BME280;9675;51.538;6.728;2023-09-12T02:15:39;100886.53;;;24.28;100.00
19086;BME280;9675;51.538;6.728;2023-09-12T02:18:07;100887.41;;;24.26;100.00
19086;BME280;9675;51.538;6.728;2023-09-12T02:20:40;100884.84;;;24.20;100.00
19086;BME280;9675;51.538;6.728;2023-09-12T02:23:07;100897.13;;;24.18;100.00
19086;BME280;9675;51.538;6.728;2023-09-12T02:25:34;100895.34;;;24.15;100.00
19086;BME280;9675;51.538;6.728;2023-09-12T02:28:01;100869.06;;;24.07;100.00
19086;BME280;9675;51.538;6.728;2023-09-12T02:30:28;100898.03;;;24.03;100.00
19086;BME280;9675;51.538;6.728;2023-09-12T02:32:55;100910.34;;;23.98;100.00
19086;BME280;9675;51.538;6.728;2023-09-12T02:35:24;100914.75;;;23.93;100.00
19086;BME280;9675;51.538;6.728;2023-09-12T02:37:51;100897.19;;;23.90;100.00
19086;BME280;9675;51.538;6.728;2023-09-12T02:40:18;100901.59;;;23.84;100.00
19086;BME280;9675;51.538;6.728;2023-09-12T02:42:45;100919.16;;;23.79;100.00
19086;BME280;9675;51.538;6.728;2023-09-12T02:45:12;100932.31;;;23.74;100.00
19086;BME280;9675;51.538;6.728;2023-09-12T02:47:39;100950.75;;;23.68;100.00
19086;BME280;9675;51.538;6.728;2023-09-12T02:50:06;100942.88;;;23.65;100.00
19086;BME280;9675;51.538;6.728;2023-09-12T02:52:35;100869.28;;;23.56;100.00
19086;BME280;9675;51.538;6.728;2023-09-12T02:55:03;100872.81;;;23.52;100.00
19086;BME280;9675;51.538;6.728;2023-09-12T02:57:30;100898.22;;;23.48;100.00
19086;BME280;9675;51.538;6.728;2023-09-12T02:59:57;100900.84;;;23.48;100.00
19086;BME280;9675;51.538;6.728;2023-09-12T03:02:24;100899.09;;;23.47;100.00
19086;BME280;9675;51.538;6.728;2023-09-12T03:04:51;100892.09;;;23.46;100.00
19086;BME280;9675;51.538;6.728;2023-09-12T03:07:18;100892.06;;;23.42;100.00
19086;BME280;9675;51.538;6.728;2023-09-12T03:09:49;100869.28;;;23.38;100.00
19086;BME280;9675;51.538;6.728;2023-09-12T03:12:16;100857.91;;;23.34;100.00
19086;BME280;9675;51.538;6.728;2023-09-12T03:14:43;100850.03;;;23.33;100.00
19086;BME280;9675;51.538;6.728;2023-09-12T03:17:10;100843.91;;;23.30;100.00
19086;BME280;9675;51.538;6.728;2023-09-12T03:19:37;100849.16;;;23.30;100.00
19086;BME280;9675;51.538;6.728;2023-09-12T03:22:04;100857.94;;;23.29;100.00
19086;BME280;9675;51.538;6.728;2023-09-12T03:24:31;100848.31;;;23.25;100.00
19086;BME280;9675;51.538;6.728;2023-09-12T03:26:59;100845.66;;;23.24;100.00
19086;BME280;9675;51.538;6.728;2023-09-12T03:29:26;100850.06;;;23.23;100.00
19086;BME280;9675;51.538;6.728;2023-09-12T03:31:53;100860.56;;;23.20;100.00
19086;BME280;9675;51.538;6.728;2023-09-12T03:34:20;100855.31;;;23.17;100.00
19086;BME280;9675;51.538;6.728;2023-09-12T03:36:47;100857.09;;;23.15;100.00
19086;BME280;9675;51.538;6.728;2023-09-12T03:39:14;100853.56;;;23.13;100.00
19086;BME280;9675;51.538;6.728;2023-09-12T03:41:41;100853.56;;;23.13;100.00
19086;BME280;9675;51.538;6.728;2023-09-12T03:44:10;100843.09;;;23.10;100.00
19086;BME280;9675;51.538;6.728;2023-09-12T03:46:37;100832.56;;;23.07;100.00
19086;BME280;9675;51.538;6.728;2023-09-12T03:49:04;100840.47;;;23.04;100.00
19086;BME280;9675;51.538;6.728;2023-09-12T03:51:33;100826.44;;;23.01;100.00
19086;BME280;9675;51.538;6.728;2023-09-12T03:54:00;100808.94;;;23.00;100.00
19086;BME280;9675;51.538;6.728;2023-09-12T03:56:28;100805.44;;;22.98;100.00
19086;BME280;9675;51.538;6.728;2023-09-12T03:58:55;100801.94;;;22.97;100.00
19086;BME280;9675;51.538;6.728;2023-09-12T04:01:25;100794.06;;;22.94;100.00
19086;BME280;9675;51.538;6.728;2023-09-12T04:03:52;100794.06;;;22.91;100.00
19086;BME280;9675;51.538;6.728;2023-09-12T04:06:19;100800.19;;;22.88;100.00
19086;BME280;9675;51.538;6.728;2023-09-12T04:08:46;100809.81;;;22.86;100.00
19086;BME280;9675;51.538;6.728;2023-09-12T04:11:13;100801.06;;;22.86;100.00
19086;BME280;9675;51.538;6.728;2023-09-12T04:13:40;100809.81;;;22.85;100.00
19086;BME280;9675;51.538;6.728;2023-09-12T04:16:07;100809.84;;;22.82;100.00
19086;BME280;9675;51.538;6.728;2023-09-12T04:18:35;100808.94;;;22.80;100.00
19086;BME280;9675;51.538;6.728;2023-09-12T04:21:02;100809.84;;;22.77;100.00
19086;BME280;9675;51.538;6.728;2023-09-12T04:23:30;100812.47;;;22.76;100.00
19086;BME280;9675;51.538;6.728;2023-09-12T04:25:57;100817.72;;;22.73;100.00
19086;BME280;9675;51.538;6.728;2023-09-12T04:28:26;100812.47;;;22.71;100.00
19086;BME280;9675;51.538;6.728;2023-09-12T04:31:01;100812.41;;;22.70;100.00
19086;BME280;9675;51.538;6.728;2023-09-12T04:33:29;100812.44;;;22.68;100.00
19086;BME280;9675;51.538;6.728;2023-09-12T04:36:00;100815.03;;;22.65;100.00
19086;BME280;9675;51.538;6.728;2023-09-12T04:38:28;100818.56;;;22.63;100.00
19086;BME280;9675;51.538;6.728;2023-09-12T04:40:56;100817.69;;;22.61;100.00
19086;BME280;9675;51.538;6.728;2023-09-12T04:43:28;100827.31;;;22.59;100.00
19086;BME280;9675;51.538;6.728;2023-09-12T04:45:56;100843.94;;;22.58;100.00
19086;BME280;9675;51.538;6.728;2023-09-12T04:48:23;100845.69;;;22.56;100.00
19086;BME280;9675;51.538;6.728;2023-09-12T04:50:50;100855.31;;;22.52;100.00
19086;BME280;9675;51.538;6.728;2023-09-12T04:53:18;100859.66;;;22.50;100.00
19086;BME280;9675;51.538;6.728;2023-09-12T04:55:45;100866.66;;;22.50;100.00
19086;BME280;9675;51.538;6.728;2023-09-12T04:58:12;100857.06;;;22.49;100.00
19086;BME280;9675;51.538;6.728;2023-09-12T05:00:40;100857.06;;;22.49;100.00
19086;BME280;9675;51.538;6.728;2023-09-12T05:03:07;100844.78;;;22.46;100.00
19086;BME280;9675;51.538;6.728;2023-09-12T05:05:34;100850.91;;;22.43;100.00
19086;BME280;9675;51.538;6.728;2023-09-12T05:08:03;100844.78;;;22.41;100.00
19086;BME280;9675;51.538;6.728;2023-09-12T05:10:32;100848.28;;;22.40;100.00
19086;BME280;9675;51.538;6.728;2023-09-12T05:12:59;100858.78;;;22.39;100.00
19086;BME280;9675;51.538;6.728;2023-09-12T05:15:26;100879.75;;;22.39;100.00
19086;BME280;9675;51.538;6.728;2023-09-12T05:17:53;100892.88;;;22.39;100.00
19086;BME280;9675;51.538;6.728;2023-09-12T05:20:20;100859.66;;;22.36;100.00
19086;BME280;9675;51.538;6.728;2023-09-12T05:22:47;100829.03;;;22.28;100.00
19086;BME280;9675;51.538;6.728;2023-09-12T05:25:14;100847.38;;;22.25;100.00
19086;BME280;9675;51.538;6.728;2023-09-12T05:27:42;100869.25;;;22.25;100.00
19086;BME280;9675;51.538;6.728;2023-09-12T05:30:10;100888.50;;;22.27;100.00
19086;BME280;9675;51.538;6.728;2023-09-12T05:32:37;100903.34;;;22.28;100.00
19086;BME280;9675;51.538;6.728;2023-09-12T05:35:05;100905.13;;;22.28;100.00
19086;BME280;9675;51.538;6.728;2023-09-12T05:37:32;100910.38;;;22.26;100.00
19086;BME280;9675;51.538;6.728;2023-09-12T05:39:59;100927.00;;;22.27;100.00
19086;BME280;9675;51.538;6.728;2023-09-12T05:42:26;100933.06;;;22.23;100.00
19086;BME280;9675;51.538;6.728;2023-09-12T05:44:55;100926.97;;;22.22;100.00
19086;BME280;9675;51.538;6.728;2023-09-12T05:47:22;100905.94;;;22.19;100.00
19086;BME280;9675;51.538;6.728;2023-09-12T05:49:50;100899.81;;;22.14;100.00
19086;BME280;9675;51.538;6.728;2023-09-12T05:52:17;100922.56;;;22.15;100.00
19086;BME280;9675;51.538;6.728;2023-09-12T05:54:45;100926.09;;;22.17;100.00
19086;BME280;9675;51.538;6.728;2023-09-12T05:57:12;100910.34;;;22.17;100.00
19086;BME280;9675;51.538;6.728;2023-09-12T05:59:39;100905.06;;;22.16;100.00
19086;BME280;9675;51.538;6.728;2023-09-12T06:02:08;100940.94;;;22.15;100.00
19086;BME280;9675;51.538;6.728;2023-09-12T06:04:35;100946.16;;;22.15;100.00
19086;BME280;9675;51.538;6.728;2023-09-12T06:07:03;100939.16;;;22.14;100.00
19086;BME280;9675;51.538;6.728;2023-09-12T06:09:31;100963.63;;;22.13;100.00
19086;BME280;9675;51.538;6.728;2023-09-12T06:11:58;100988.16;;;22.12;100.00
19086;BME280;9675;51.538;6.728;2023-09-12T06:14:25;101033.59;;;22.11;100.00
19086;BME280;9675;51.538;6.728;2023-09-12T06:16:52;101052.81;;;22.07;100.00
19086;BME280;9675;51.538;6.728;2023-09-12T06:19:20;101052.78;;;22.04;100.00
19086;BME280;9675;51.538;6.728;2023-09-12T06:21:47;101038.78;;;22.00;100.00
19086;BME280;9675;51.538;6.728;2023-09-12T06:24:16;101005.53;;;21.98;100.00
19086;BME280;9675;51.538;6.728;2023-09-12T06:26:43;100993.28;;;21.97;100.00
19086;BME280;9675;51.538;6.728;2023-09-12T06:29:11;100982.72;;;21.85;100.00
19086;BME280;9675;51.538;6.728;2023-09-12T06:31:38;100971.31;;;21.80;100.00
19086;BME280;9675;51.538;6.728;2023-09-12T06:34:07;100957.28;;;21.76;100.00
19086;BME280;9675;51.538;6.728;2023-09-12T06:36:36;100945.06;;;21.77;100.00
19086;BME280;9675;51.538;6.728;2023-09-12T06:39:04;100916.22;;;21.77;100.00
19086;BME280;9675;51.538;6.728;2023-09-12T06:41:32;100898.72;;;21.73;100.00
19086;BME280;9675;51.538;6.728;2023-09-12T06:43:59;100901.34;;;21.71;100.00
19086;BME280;9675;51.538;6.728;2023-09-12T06:46:28;100875.09;;;21.67;100.00
19086;BME280;9675;51.538;6.728;2023-09-12T06:48:55;100865.50;;;21.64;100.00
19086;BME280;9675;51.538;6.728;2023-09-12T06:51:24;100874.25;;;21.65;100.00
19086;BME280;9675;51.538;6.728;2023-09-12T06:53:53;100882.09;;;21.63;100.00
19086;BME280;9675;51.538;6.728;2023-09-12T06:56:20;100897.84;;;21.72;100.00
19086;BME280;9675;51.538;6.728;2023-09-12T06:58:48;100921.50;;;21.83;100.00
19086;BME280;9675;51.538;6.728;2023-09-12T07:01:15;100933.84;;;21.94;100.00
19086;BME280;9675;51.538;6.728;2023-09-12T07:03:42;100934.75;;;22.02;100.00
19086;BME280;9675;51.538;6.728;2023-09-12T07:06:09;100947.03;;;22.10;100.00
19086;BME280;9675;51.538;6.728;2023-09-12T07:08:36;100954.91;;;22.19;100.00
19086;BME280;9675;51.538;6.728;2023-09-12T07:11:04;100952.31;;;22.23;100.00
19086;BME280;9675;51.538;6.728;2023-09-12T07:13:33;100952.34;;;22.29;100.00
19086;BME280;9675;51.538;6.728;2023-09-12T07:16:00;100947.09;;;22.34;100.00
19086;BME280;9675;51.538;6.728;2023-09-12T07:18:29;100945.38;;;22.37;100.00
19086;BME280;9675;51.538;6.728;2023-09-12T07:20:59;100939.28;;;22.43;100.00
19086;BME280;9675;51.538;6.728;2023-09-12T07:23:26;100931.41;;;22.43;100.00
19086;BME280;9675;51.538;6.728;2023-09-12T07:25:55;100920.00;;;22.39;100.00
19086;BME280;9675;51.538;6.728;2023-09-12T07:28:24;100930.50;;;22.36;100.00
19086;BME280;9675;51.538;6.728;2023-09-12T07:30:51;100924.41;;;22.37;100.00
19086;BME280;9675;51.538;6.728;2023-09-12T07:33:18;100920.88;;;22.35;100.00
19086;BME280;9675;51.538;6.728;2023-09-12T07:35:46;100911.25;;;22.34;100.00
19086;BME280;9675;51.538;6.728;2023-09-12T07:38:13;100919.16;;;22.37;100.00
19086;BME280;9675;51.538;6.728;2023-09-12T07:40:42;100921.78;;;22.37;100.00
19086;BME280;9675;51.538;6.728;2023-09-12T07:43:09;100925.25;;;22.39;100.00
19086;BME280;9675;51.538;6.728;2023-09-12T07:45:38;100924.38;;;22.33;100.00
19086;BME280;9675;51.538;6.728;2023-09-12T07:48:07;100930.50;;;22.36;100.00
19086;BME280;9675;51.538;6.728;2023-09-12T07:50:35;100927.88;;;22.39;100.00
19086;BME280;9675;51.538;6.728;2023-09-12T07:53:04;100913.91;;;22.42;100.00
19086;BME280;9675;51.538;6.728;2023-09-12T07:55:31;100908.63;;;22.43;100.00
19086;BME280;9675;51.538;6.728;2023-09-12T07:58:02;100914.78;;;22.45;100.00
19086;BME280;9675;51.538;6.728;2023-09-12T08:00:29;100918.28;;;22.44;100.00
19086;BME280;9675;51.538;6.728;2023-09-12T08:02:57;100925.28;;;22.45;100.00
19086;BME280;9675;51.538;6.728;2023-09-12T08:05:24;100935.75;;;22.39;100.00
19086;BME280;9675;51.538;6.728;2023-09-12T08:07:51;100941.88;;;22.40;100.00
19086;BME280;9675;51.538;6.728;2023-09-12T08:10:18;100936.66;;;22.43;100.00
19086;BME280;9675;51.538;6.728;2023-09-12T08:12:45;100930.53;;;22.45;100.00
19086;BME280;9675;51.538;6.728;2023-09-12T08:15:12;100934.03;;;22.46;100.00
19086;BME280;9675;51.538;6.728;2023-09-12T08:17:39;100935.78;;;22.45;100.00
19086;BME280;9675;51.538;6.728;2023-09-12T08:20:09;100937.53;;;22.45;100.00
19086;BME280;9675;51.538;6.728;2023-09-12T08:22:36;100935.78;;;22.45;100.00
19086;BME280;9675;51.538;6.728;2023-09-12T08:25:04;100924.41;;;22.46;100.00
19086;BME280;9675;51.538;6.728;2023-09-12T08:27:31;100931.41;;;22.46;100.00
19086;BME280;9675;51.538;6.728;2023-09-12T08:29:58;100935.78;;;22.45;100.00
19086;BME280;9675;51.538;6.728;2023-09-12T08:32:25;100941.03;;;22.45;100.00
19086;BME280;9675;51.538;6.728;2023-09-12T08:34:52;100941.91;;;22.46;100.00
19086;BME280;9675;51.538;6.728;2023-09-12T08:37:20;100946.31;;;22.49;100.00
19086;BME280;9675;51.538;6.728;2023-09-12T08:39:47;100948.91;;;22.50;100.00
19086;BME280;9675;51.538;6.728;2023-09-12T08:42:16;100952.41;;;22.51;100.00
19086;BME280;9675;51.538;6.728;2023-09-12T08:44:43;100956.78;;;22.52;100.00
19086;BME280;9675;51.538;6.728;2023-09-12T08:47:11;100969.91;;;22.52;100.00
19086;BME280;9675;51.538;6.728;2023-09-12T08:49:38;100976.03;;;22.51;100.00
19086;BME280;9675;51.538;6.728;2023-09-12T08:52:08;100989.19;;;22.54;100.00
19086;BME280;9675;51.538;6.728;2023-09-12T08:54:36;100988.28;;;22.55;100.00
19086;BME280;9675;51.538;6.728;2023-09-12T08:57:05;100989.19;;;22.54;100.00
19086;BME280;9675;51.538;6.728;2023-09-12T08:59:34;100997.91;;;22.54;100.00
19086;BME280;9675;51.538;6.728;2023-09-12T09:02:02;100997.06;;;22.57;100.00
19086;BME280;9675;51.538;6.728;2023-09-12T09:04:34;100994.44;;;22.58;100.00
19086;BME280;9675;51.538;6.728;2023-09-12T09:07:03;101004.06;;;22.61;100.00
19086;BME280;9675;51.538;6.728;2023-09-12T09:09:30;101002.34;;;22.63;100.00
19086;BME280;9675;51.538;6.728;2023-09-12T09:12:00;101004.94;;;22.66;100.00
19086;BME280;9675;51.538;6.728;2023-09-12T09:14:29;101009.34;;;22.70;100.00
19086;BME280;9675;51.538;6.728;2023-09-12T09:16:56;101006.78;;;22.73;100.00
19086;BME280;9675;51.538;6.728;2023-09-12T09:19:41;101006.78;;;22.77;100.00
19086;BME280;9675;51.538;6.728;2023-09-12T09:22:08;101002.41;;;22.81;100.00
19086;BME280;9675;51.538;6.728;2023-09-12T09:24:35;101000.66;;;22.86;100.00
19086;BME280;9675;51.538;6.728;2023-09-12T09:27:04;100994.56;;;22.90;100.00
19086;BME280;9675;51.538;6.728;2023-09-12T09:29:31;100999.81;;;22.95;100.00
19086;BME280;9675;51.538;6.728;2023-09-12T09:32:00;100999.81;;;23.02;100.00
19086;BME280;9675;51.538;6.728;2023-09-12T09:34:27;100998.97;;;23.09;100.00
19086;BME280;9675;51.538;6.728;2023-09-12T09:36:57;101005.97;;;23.19;100.00
19086;BME280;9675;51.538;6.728;2023-09-12T09:39:27;101017.38;;;23.26;100.00
19086;BME280;9675;51.538;6.728;2023-09-12T09:41:56;101007.72;;;23.33;100.00
19086;BME280;9675;51.538;6.728;2023-09-12T09:44:26;101007.75;;;23.42;100.00
19086;BME280;9675;51.538;6.728;2023-09-12T09:46:55;101004.25;;;23.49;100.00
19086;BME280;9675;51.538;6.728;2023-09-12T09:49:26;101010.38;;;23.57;100.00
19086;BME280;9675;51.538;6.728;2023-09-12T09:51:55;101011.25;;;23.65;100.00
19086;BME280;9675;51.538;6.728;2023-09-12T09:54:24;101006.84;;;23.73;100.00
19086;BME280;9675;51.538;6.728;2023-09-12T09:56:55;101009.47;;;23.79;100.00
19086;BME280;9675;51.538;6.728;2023-09-12T09:59:26;100994.56;;;23.86;100.00
19086;BME280;9675;51.538;6.728;2023-09-12T10:01:57;100998.94;;;23.91;100.00
19086;BME280;9675;51.538;6.728;2023-09-12T10:04:27;100998.91;;;23.97;100.00
19086;BME280;9675;51.538;6.728;2023-09-12T10:06:57;100991.88;;;24.02;100.00
19086;BME280;9675;51.538;6.728;2023-09-12T10:09:27;100995.38;;;24.07;100.00
19086;BME280;9675;51.538;6.728;2023-09-12T10:11:57;100996.22;;;24.15;100.00
19086;BME280;9675;51.538;6.728;2023-09-12T10:14:28;100991.84;;;24.21;100.00
19086;BME280;9675;51.538;6.728;2023-09-12T10:17:01;100979.53;;;24.26;100.00
19086;BME280;9675;51.538;6.728;2023-09-12T10:19:36;100981.28;;;24.31;100.00
19086;BME280;9675;51.538;6.728;2023-09-12T10:22:09;100993.53;;;24.37;100.00
19086;BME280;9675;51.538;6.728;2023-09-12T10:24:40;100988.25;;;24.44;100.00
19086;BME280;9675;51.538;6.728;2023-09-12T10:27:11;100989.97;;;24.50;100.00
19086;BME280;9675;51.538;6.728;2023-09-12T10:29:40;100987.28;;;24.58;100.00
19086;BME280;9675;51.538;6.728;2023-09-12T10:32:09;100981.13;;;24.66;100.00
19086;BME280;9675;51.538;6.728;2023-09-12T10:34:39;100981.06;;;24.75;100.00
19086;BME280;9675;51.538;6.728;2023-09-12T10:37:09;100978.34;;;24.84;100.00
19086;BME280;9675;51.538;6.728;2023-09-12T10:39:36;100980.06;;;24.93;100.00
19086;BME280;9675;51.538;6.728;2023-09-12T10:42:05;100987.03;;;25.03;100.00
19086;BME280;9675;51.538;6.728;2023-09-12T10:44:33;100989.63;;;25.12;100.00
19086;BME280;9675;51.538;6.728;2023-09-12T10:47:04;100988.66;;;25.19;100.00
19086;BME280;9675;51.538;6.728;2023-09-12T10:49:32;100990.38;;;25.26;100.00
19086;BME280;9675;51.538;6.728;2023-09-12T10:52:00;100989.41;;;25.35;100.00
19086;BME280;9675;51.538;6.728;2023-09-12T10:54:37;100986.69;;;25.47;100.00
19086;BME280;9675;51.538;6.728;2023-09-12T10:57:05;100975.19;;;25.56;100.00
19086;BME280;9675;51.538;6.728;2023-09-12T10:59:34;100977.72;;;25.65;100.00
19086;BME280;9675;51.538;6.728;2023-09-12T11:02:29;100973.28;;;25.71;100.00
19086;BME280;9675;51.538;6.728;2023-09-12T11:04:56;100974.09;;;25.76;100.00
19086;BME280;9675;51.538;6.728;2023-09-12T11:07:32;100974.00;;;25.86;100.00
19086;BME280;9675;51.538;6.728;2023-09-12T11:10:17;100968.59;;;25.96;100.00
19086;BME280;9675;51.538;6.728;2023-09-12T11:12:47;100966.72;;;26.07;100.00
19086;BME280;9675;51.538;6.728;2023-09-12T11:15:15;100962.25;;;26.14;100.00
19086;BME280;9675;51.538;6.728;2023-09-12T11:17:45;100966.56;;;26.19;100.00
19086;BME280;9675;51.538;6.728;2023-09-12T11:20:14;100967.44;;;26.23;100.00
19086;BME280;9675;51.538;6.728;2023-09-12T11:22:44;100963.84;;;26.27;100.00
19086;BME280;9675;51.538;6.728;2023-09-12T11:25:20;100951.53;;;26.29;100.00
19086;BME280;9675;51.538;6.728;2023-09-12T11:28:05;100942.63;;;26.35;100.00
19086;BME280;9675;51.538;6.728;2023-09-12T11:30:32;100945.22;;;26.39;100.00
19086;BME280;9675;51.538;6.728;2023-09-12T11:33:04;100955.75;;;26.42;100.00
19086;BME280;9675;51.538;6.728;2023-09-12T11:35:37;100953.88;;;26.50;100.00
19086;BME280;9675;51.538;6.728;2023-09-12T11:38:10;100948.50;;;26.56;100.00
19086;BME280;9675;51.538;6.728;2023-09-12T11:40:44;100951.97;;;26.61;100.00
19086;BME280;9675;51.538;6.728;2023-09-12T11:43:23;100937.84;;;26.62;100.00
19086;BME280;9675;51.538;6.728;2023-09-12T11:45:52;100936.03;;;26.66;100.00
19086;BME280;9675;51.538;6.728;2023-09-12T11:48:20;100940.28;;;26.76;100.00
19086;BME280;9675;51.538;6.728;2023-09-12T11:50:53;100945.41;;;26.85;100.00
19086;BME280;9675;51.538;6.728;2023-09-12T11:53:22;100941.81;;;26.94;100.00
19086;BME280;9675;51.538;6.728;2023-09-12T11:55:54;100947.84;;;27.00;100.00
19086;BME280;9675;51.538;6.728;2023-09-12T11:58:21;100946.06;;;27.02;100.00
19086;BME280;9675;51.538;6.728;2023-09-12T12:00:51;100956.56;;;27.07;100.00
19086;BME280;9675;51.538;6.728;2023-09-12T12:03:22;100951.25;;;27.09;100.00
19086;BME280;9675;51.538;6.728;2023-09-12T12:05:50;100950.31;;;27.13;100.00
19086;BME280;9675;51.538;6.728;2023-09-12T12:08:18;100948.47;;;27.16;100.00
19086;BME280;9675;51.538;6.728;2023-09-12T12:10:49;100944.94;;;27.17;100.00
19086;BME280;9675;51.538;6.728;2023-09-12T12:13:17;100943.09;;;27.22;100.00
19086;BME280;9675;51.538;6.728;2023-09-12T12:15:45;100945.56;;;27.31;100.00
19086;BME280;9675;51.538;6.728;2023-09-12T12:18:12;100948.97;;;27.38;100.00
19086;BME280;9675;51.538;6.728;2023-09-12T12:20:40;100952.41;;;27.44;100.00
19086;BME280;9675;51.538;6.728;2023-09-12T12:23:08;100946.13;;;27.52;100.00
19086;BME280;9675;51.538;6.728;2023-09-12T12:25:35;100952.16;;;27.60;100.00
19086;BME280;9675;51.538;6.728;2023-09-12T12:28:03;100952.91;;;27.66;100.00
19086;BME280;9675;51.538;6.728;2023-09-12T12:30:32;100951.88;;;27.73;100.00
19086;BME280;9675;51.538;6.728;2023-09-12T12:33:06;100949.16;;;27.78;100.00
19086;BME280;9675;51.538;6.728;2023-09-12T12:35:33;100944.69;;;27.81;100.00
19086;BME280;9675;51.538;6.728;2023-09-12T12:38:04;100941.09;;;27.84;100.00
19086;BME280;9675;51.538;6.728;2023-09-12T12:40:31;100939.28;;;27.87;100.00
19086;BME280;9675;51.538;6.728;2023-09-12T12:42:58;100939.19;;;27.92;100.00
19086;BME280;9675;51.538;6.728;2023-09-12T12:45:26;100929.38;;;27.97;100.00
19086;BME280;9675;51.538;6.728;2023-09-12T12:47:59;100925.72;;;28.03;100.00
19086;BME280;9675;51.538;6.728;2023-09-12T12:50:27;100936.16;;;28.12;100.00
19086;BME280;9675;51.538;6.728;2023-09-12T12:52:54;100928.94;;;28.18;100.00
19086;BME280;9675;51.538;6.728;2023-09-12T12:55:26;100919.06;;;28.25;100.00
19086;BME280;9675;51.538;6.728;2023-09-12T12:57:53;100911.03;;;28.29;100.00